sensor_id;sensor_type;location;lat;lon;timestamp;pressure;altitude;pressure_sealevel;temperature;humidity
63946;BME280;50122;56.330;43.838;2022-10-04T09:59:57;100849.09;;;20.62;45.89
63946;BME280;50122;56.330;43.838;2022-10-04T10:17:39;100845.50;;;17.70;55.72
63946;BME280;50122;56.330;43.838;2022-10-04T10:47:59;100801.38;;;26.03;36.53
63946;BME280;50122;56.330;43.838;2022-10-04T11:27:03;100857.91;;;18.66;51.25
63946;BME280;50122;56.330;43.838;2022-10-04T11:29:46;100854.78;;;18.47;52.08
63946;BME280;50122;56.330;43.838;2022-10-04T11:38:14;100841.78;;;17.73;53.89
63946;BME280;50122;56.330;43.838;2022-10-04T11:40:59;100838.72;;;17.65;53.51
63946;BME280;50122;56.330;43.838;2022-10-04T11:57:24;100815.47;;;17.11;55.18
63946;BME280;50122;56.330;43.838;2022-10-04T12:00:13;100829.38;;;17.16;55.97
63946;BME280;50122;56.330;43.838;2022-10-04T12:17:47;100792.09;;;16.71;56.48
63946;BME280;50122;56.330;43.838;2022-10-04T12:36:35;100790.50;;;19.61;50.27
63946;BME280;50122;56.330;43.838;2022-10-04T12:55:49;100790.22;;;18.77;51.07
63946;BME280;50122;56.330;43.838;2022-10-04T12:58:47;100799.63;;;18.31;52.99
63946;BME280;50122;56.330;43.838;2022-10-04T13:06:41;100793.41;;;17.63;54.83
63946;BME280;50122;56.330;43.838;2022-10-04T13:09:24;100783.88;;;17.32;55.45
63946;BME280;50122;56.330;43.838;2022-10-04T13:31:26;100808.09;;;16.26;59.97
63946;BME280;50122;56.330;43.838;2022-10-04T13:37:00;100795.78;;;16.09;60.64
63946;BME280;50122;56.330;43.838;2022-10-04T13:56:39;100798.81;;;14.74;65.98
63946;BME280;50122;56.330;43.838;2022-10-04T14:02:23;100809.88;;;14.49;67.48
63946;BME280;50122;56.330;43.838;2022-10-04T14:27:26;100797.53;;;13.76;71.46
63946;BME280;50122;56.330;43.838;2022-10-04T14:35:48;100809.38;;;13.69;72.81
63946;BME280;50122;56.330;43.838;2022-10-04T14:54:53;100799.38;;;13.57;74.03
63946;BME280;50122;56.330;43.838;2022-10-04T14:57:36;100820.16;;;13.66;74.24
63946;BME280;50122;56.330;43.838;2022-10-04T15:00:18;100813.13;;;13.65;74.40
63946;BME280;50122;56.330;43.838;2022-10-04T15:03:07;100814.16;;;13.62;74.49
63946;BME280;50122;56.330;43.838;2022-10-04T15:05:56;100803.88;;;13.54;74.46
63946;BME280;50122;56.330;43.838;2022-10-04T15:11:33;100820.69;;;13.55;75.06
63946;BME280;50122;56.330;43.838;2022-10-04T15:14:03;100818.97;;;13.54;75.28
63946;BME280;50122;56.330;43.838;2022-10-04T15:16:57;100821.63;;;13.54;75.15
63946;BME280;50122;56.330;43.838;2022-10-04T15:19:29;100825.06;;;13.56;75.38
63946;BME280;50122;56.330;43.838;2022-10-04T15:22:12;100802.16;;;13.34;75.62
63946;BME280;50122;56.330;43.838;2022-10-04T15:24:47;100823.97;;;13.60;75.80
63946;BME280;50122;56.330;43.838;2022-10-04T15:30:32;100836.56;;;13.57;75.70
63946;BME280;50122;56.330;43.838;2022-10-04T15:33:13;100827.94;;;13.51;75.77
63946;BME280;50122;56.330;43.838;2022-10-04T15:38:30;100829.31;;;13.41;75.97
63946;BME280;50122;56.330;43.838;2022-10-04T15:55:09;100835.50;;;13.21;77.27
63946;BME280;50122;56.330;43.838;2022-10-04T16:00:13;100827.91;;;13.13;77.30
63946;BME280;50122;56.330;43.838;2022-10-04T16:05:44;100831.78;;;13.06;77.33
63946;BME280;50122;56.330;43.838;2022-10-04T16:24:42;100826.69;;;12.81;77.83
63946;BME280;50122;56.330;43.838;2022-10-04T16:33:05;100816.66;;;12.68;77.76
63946;BME280;50122;56.330;43.838;2022-10-04T16:35:41;100838.50;;;12.74;77.57
63946;BME280;50122;56.330;43.838;2022-10-04T16:54:33;100841.31;;;12.50;77.89
63946;BME280;50122;56.330;43.838;2022-10-04T16:57:20;100834.34;;;12.47;77.49
63946;BME280;50122;56.330;43.838;2022-10-04T16:59:51;100838.38;;;12.56;77.56
63946;BME280;50122;56.330;43.838;2022-10-04T17:05:19;100847.41;;;12.52;77.34
63946;BME280;50122;56.330;43.838;2022-10-04T17:13:46;100836.00;;;12.50;77.57
63946;BME280;50122;56.330;43.838;2022-10-04T17:16:35;100836.00;;;12.50;77.13
63946;BME280;50122;56.330;43.838;2022-10-04T17:38:15;100841.22;;;12.10;77.63
63946;BME280;50122;56.330;43.838;2022-10-04T17:41:03;100854.50;;;12.09;77.71
63946;BME280;50122;56.330;43.838;2022-10-04T17:46:22;100843.97;;;12.07;78.18
63946;BME280;50122;56.330;43.838;2022-10-04T17:48:57;100842.19;;;12.08;77.96
63946;BME280;50122;56.330;43.838;2022-10-04T17:51:54;100841.25;;;12.09;78.00
63946;BME280;50122;56.330;43.838;2022-10-04T17:54:47;100820.13;;;12.07;78.01
63946;BME280;50122;56.330;43.838;2022-10-04T18:00:23;100854.19;;;12.16;78.03
63946;BME280;50122;56.330;43.838;2022-10-04T18:03:16;100853.25;;;12.18;78.36
63946;BME280;50122;56.330;43.838;2022-10-04T18:05:50;100851.47;;;12.18;78.05
63946;BME280;50122;56.330;43.838;2022-10-04T18:10:57;100861.81;;;12.24;77.76
63946;BME280;50122;56.330;43.838;2022-10-04T18:13:48;100854.72;;;12.25;77.30
63946;BME280;50122;56.330;43.838;2022-10-04T18:18:44;100823.38;;;12.14;77.58
63946;BME280;50122;56.330;43.838;2022-10-04T18:26:53;100826.25;;;12.30;77.64
63946;BME280;50122;56.330;43.838;2022-10-04T18:29:39;100826.31;;;12.28;77.34
63946;BME280;50122;56.330;43.838;2022-10-04T18:32:30;100805.97;;;12.08;77.22
63946;BME280;50122;56.330;43.838;2022-10-04T18:35:15;100816.97;;;12.20;77.84
63946;BME280;50122;56.330;43.838;2022-10-04T18:37:44;100793.97;;;11.99;77.72
63946;BME280;50122;56.330;43.838;2022-10-04T18:42:56;100828.97;;;12.28;77.38
63946;BME280;50122;56.330;43.838;2022-10-04T18:45:26;100821.16;;;12.25;77.15
63946;BME280;50122;56.330;43.838;2022-10-04T18:47:59;100814.06;;;12.26;77.10
63946;BME280;50122;56.330;43.838;2022-10-04T18:50:34;100804.72;;;12.17;77.38
63946;BME280;50122;56.330;43.838;2022-10-04T18:56:00;100811.66;;;12.20;77.27
63946;BME280;50122;56.330;43.838;2022-10-04T18:59:02;100816.00;;;12.22;77.56
63946;BME280;50122;56.330;43.838;2022-10-04T19:04:56;100808.59;;;12.08;77.21
63946;BME280;50122;56.330;43.838;2022-10-04T19:07:36;100794.81;;;12.00;77.08
63946;BME280;50122;56.330;43.838;2022-10-04T19:10:36;100798.81;;;11.88;77.44
63946;BME280;50122;56.330;43.838;2022-10-04T19:22:01;100805.22;;;11.82;77.96
63946;BME280;50122;56.330;43.838;2022-10-04T19:30:12;100728.69;;;11.32;77.19
63946;BME280;50122;56.330;43.838;2022-10-04T19:41:24;100768.56;;;11.27;78.02
63946;BME280;50122;56.330;43.838;2022-10-04T19:46:42;100776.63;;;11.24;78.82
63946;BME280;50122;56.330;43.838;2022-10-04T19:55:25;100772.28;;;11.00;79.35
63946;BME280;50122;56.330;43.838;2022-10-04T19:58:15;100780.22;;;11.00;80.06
63946;BME280;50122;56.330;43.838;2022-10-04T20:00:47;100784.28;;;11.08;80.49
63946;BME280;50122;56.330;43.838;2022-10-04T20:03:14;100775.38;;;11.11;80.62
63946;BME280;50122;56.330;43.838;2022-10-04T20:05:52;100771.59;;;11.18;80.74
63946;BME280;50122;56.330;43.838;2022-10-04T20:13:43;100776.94;;;11.39;79.52
63946;BME280;50122;56.330;43.838;2022-10-04T20:16:10;100775.47;;;11.32;79.40
63946;BME280;50122;56.330;43.838;2022-10-04T20:21:22;100780.31;;;11.42;79.28
63946;BME280;50122;56.330;43.838;2022-10-04T20:23:52;100759.59;;;11.32;79.10
63946;BME280;50122;56.330;43.838;2022-10-04T20:26:39;100768.03;;;11.41;78.75
63946;BME280;50122;56.330;43.838;2022-10-04T20:32:04;100773.84;;;11.51;78.40
63946;BME280;50122;56.330;43.838;2022-10-04T20:34:46;100770.19;;;11.54;78.19
63946;BME280;50122;56.330;43.838;2022-10-04T20:37:14;100748.53;;;11.44;77.90
63946;BME280;50122;56.330;43.838;2022-10-04T20:42:32;100740.16;;;11.33;77.88
63946;BME280;50122;56.330;43.838;2022-10-04T20:50:38;100794.00;;;11.54;78.09
63946;BME280;50122;56.330;43.838;2022-10-04T20:53:25;100777.28;;;11.53;77.50
63946;BME280;50122;56.330;43.838;2022-10-04T20:58:40;100755.09;;;11.34;77.17
63946;BME280;50122;56.330;43.838;2022-10-04T21:07:03;100775.47;;;11.54;76.84
63946;BME280;50122;56.330;43.838;2022-10-04T21:09:33;100753.81;;;11.44;77.32
63946;BME280;50122;56.330;43.838;2022-10-04T21:12:00;100760.69;;;11.48;76.83
63946;BME280;50122;56.330;43.838;2022-10-04T21:14:32;100753.75;;;11.45;76.95
63946;BME280;50122;56.330;43.838;2022-10-04T21:17:00;100756.34;;;11.47;77.02
63946;BME280;50122;56.330;43.838;2022-10-04T21:19:29;100751.28;;;11.41;77.09
63946;BME280;50122;56.330;43.838;2022-10-04T21:21:57;100756.34;;;11.47;77.05
63946;BME280;50122;56.330;43.838;2022-10-04T21:24:51;100739.66;;;11.45;77.48
63946;BME280;50122;56.330;43.838;2022-10-04T21:27:32;100748.22;;;11.52;77.19
63946;BME280;50122;56.330;43.838;2022-10-04T21:30:01;100744.75;;;11.50;76.91
63946;BME280;50122;56.330;43.838;2022-10-04T21:32:34;100757.13;;;11.49;77.39
63946;BME280;50122;56.330;43.838;2022-10-04T21:35:05;100742.22;;;11.46;77.26
63946;BME280;50122;56.330;43.838;2022-10-04T21:37:33;100734.34;;;11.45;77.63
63946;BME280;50122;56.330;43.838;2022-10-04T21:40:01;100727.31;;;11.45;77.09
63946;BME280;50122;56.330;43.838;2022-10-04T21:42:27;100727.22;;;11.47;77.09
63946;BME280;50122;56.330;43.838;2022-10-04T21:44:56;100734.00;;;11.54;77.13
63946;BME280;50122;56.330;43.838;2022-10-04T21:47:23;100733.13;;;11.54;77.13
63946;BME280;50122;56.330;43.838;2022-10-04T21:49:50;100705.75;;;11.33;77.15
63946;BME280;50122;56.330;43.838;2022-10-04T21:52:18;100670.31;;;11.15;76.78
63946;BME280;50122;56.330;43.838;2022-10-04T21:54:46;100734.34;;;11.45;76.78
63946;BME280;50122;56.330;43.838;2022-10-04T21:57:15;100727.88;;;11.52;77.04
63946;BME280;50122;56.330;43.838;2022-10-04T21:59:42;100669.31;;;11.17;77.14
63946;BME280;50122;56.330;43.838;2022-10-04T22:02:09;100730.19;;;11.61;77.38
63946;BME280;50122;56.330;43.838;2022-10-04T22:04:35;100718.72;;;11.61;77.28
63946;BME280;50122;56.330;43.838;2022-10-04T22:07:04;100709.16;;;11.57;77.12
63946;BME280;50122;56.330;43.838;2022-10-04T22:09:30;100719.72;;;11.58;76.95
63946;BME280;50122;56.330;43.838;2022-10-04T22:11:59;100732.91;;;11.60;77.20
63946;BME280;50122;56.330;43.838;2022-10-04T22:14:25;100718.19;;;11.53;77.19
63946;BME280;50122;56.330;43.838;2022-10-04T22:16:52;100713.53;;;11.58;77.38
63946;BME280;50122;56.330;43.838;2022-10-04T22:19:19;100721.13;;;11.67;77.42
63946;BME280;50122;56.330;43.838;2022-10-04T22:21:46;100722.81;;;11.68;77.26
63946;BME280;50122;56.330;43.838;2022-10-04T22:24:17;100707.13;;;11.63;77.27
63946;BME280;50122;56.330;43.838;2022-10-04T22:26:45;100706.88;;;11.70;76.82
63946;BME280;50122;56.330;43.838;2022-10-04T22:29:14;100689.84;;;11.55;76.73
63946;BME280;50122;56.330;43.838;2022-10-04T22:31:49;100702.53;;;11.69;76.49
63946;BME280;50122;56.330;43.838;2022-10-04T22:34:19;100686.72;;;11.67;76.46
63946;BME280;50122;56.330;43.838;2022-10-04T22:36:47;100698.75;;;11.74;76.44
63946;BME280;50122;56.330;43.838;2022-10-04T22:39:17;100697.94;;;11.72;76.36
63946;BME280;50122;56.330;43.838;2022-10-04T22:41:47;100682.41;;;11.64;76.56
63946;BME280;50122;56.330;43.838;2022-10-04T22:44:17;100687.63;;;11.66;76.33
63946;BME280;50122;56.330;43.838;2022-10-04T22:46:47;100679.75;;;11.64;76.31
63946;BME280;50122;56.330;43.838;2022-10-04T22:49:18;100686.75;;;11.65;76.60
63946;BME280;50122;56.330;43.838;2022-10-04T22:51:47;100674.09;;;11.52;76.53
63946;BME280;50122;56.330;43.838;2022-10-04T22:54:16;100678.41;;;11.54;76.65
63946;BME280;50122;56.330;43.838;2022-10-04T22:56:46;100681.72;;;11.59;76.57
63946;BME280;50122;56.330;43.838;2022-10-04T22:59:16;100681.13;;;11.53;76.72
63946;BME280;50122;56.330;43.838;2022-10-04T23:01:45;100677.06;;;11.44;76.79
63946;BME280;50122;56.330;43.838;2022-10-04T23:04:23;100670.41;;;11.56;76.99
63946;BME280;50122;56.330;43.838;2022-10-04T23:06:51;100654.66;;;11.53;76.83
63946;BME280;50122;56.330;43.838;2022-10-04T23:09:18;100668.34;;;11.62;76.43
63946;BME280;50122;56.330;43.838;2022-10-04T23:11:45;100668.34;;;11.62;76.90
63946;BME280;50122;56.330;43.838;2022-10-04T23:14:12;100671.00;;;11.62;76.58
63946;BME280;50122;56.330;43.838;2022-10-04T23:16:39;100659.88;;;11.54;76.48
63946;BME280;50122;56.330;43.838;2022-10-04T23:19:14;100661.34;;;11.61;76.72
63946;BME280;50122;56.330;43.838;2022-10-04T23:21:44;100663.94;;;11.63;76.86
63946;BME280;50122;56.330;43.838;2022-10-04T23:24:18;100658.78;;;11.60;76.98
63946;BME280;50122;56.330;43.838;2022-10-04T23:26:53;100633.84;;;11.43;76.97
63946;BME280;50122;56.330;43.838;2022-10-04T23:29:32;100652.00;;;11.53;76.88
63946;BME280;50122;56.330;43.838;2022-10-04T23:32:13;100648.88;;;11.43;76.91
63946;BME280;50122;56.330;43.838;2022-10-04T23:34:43;100650.66;;;11.42;77.36
63946;BME280;50122;56.330;43.838;2022-10-04T23:37:26;100644.38;;;11.45;77.31
63946;BME280;50122;56.330;43.838;2022-10-04T23:39:55;100644.16;;;11.50;77.50
63946;BME280;50122;56.330;43.838;2022-10-04T23:42:28;100642.47;;;11.49;78.04
63946;BME280;50122;56.330;43.838;2022-10-04T23:44:56;100631.41;;;11.39;78.33
63946;BME280;50122;56.330;43.838;2022-10-04T23:47:28;100639.41;;;11.37;78.55
63946;BME280;50122;56.330;43.838;2022-10-04T23:49:57;100614.19;;;11.28;79.04
63946;BME280;50122;56.330;43.838;2022-10-04T23:52:30;100628.81;;;11.37;79.32
63946;BME280;50122;56.330;43.838;2022-10-04T23:55:00;100626.25;;;11.36;79.35
63946;BME280;50122;56.330;43.838;2022-10-04T23:57:28;100628.81;;;11.37;79.73
63946;BME280;50122;56.330;43.838;2022-10-04T23:59:58;100622.91;;;11.30;79.73
